createdAt,value
2022-12-08T00:00:08.810Z,8.25
2022-12-08T00:02:44.517Z,7.88
2022-12-08T00:05:30.065Z,8.57
2022-12-08T00:08:15.569Z,6.85
2022-12-08T00:10:49.994Z,8.38
2022-12-08T00:13:16.972Z,6.40
2022-12-08T00:15:43.661Z,7.00
2022-12-08T00:18:10.320Z,9.70
2022-12-08T00:20:37.060Z,6.07
2022-12-08T00:23:04.511Z,7.93
2022-12-08T00:25:31.963Z,9.60
2022-12-08T00:27:58.655Z,10.13
2022-12-08T00:30:25.350Z,10.57
2022-12-08T00:32:52.189Z,10.55
2022-12-08T00:35:18.885Z,7.10
2022-12-08T00:37:45.582Z,7.93
2022-12-08T00:40:12.290Z,8.45
2022-12-08T00:42:38.959Z,7.72
2022-12-08T00:45:06.199Z,10.02
2022-12-08T00:47:32.879Z,7.68
2022-12-08T00:49:59.736Z,6.82
2022-12-08T00:52:26.517Z,8.30
2022-12-08T00:54:53.161Z,6.68
2022-12-08T00:57:19.867Z,9.80
2022-12-08T00:59:46.585Z,6.65
2022-12-08T01:02:13.237Z,7.45
2022-12-08T01:04:39.929Z,7.22
2022-12-08T01:07:06.758Z,10.00
2022-12-08T01:09:34.130Z,7.65
2022-12-08T01:12:01.069Z,12.40
2022-12-08T01:14:27.797Z,10.90
2022-12-08T01:16:54.560Z,7.43
2022-12-08T01:19:21.294Z,7.30
2022-12-08T01:21:47.967Z,7.90
2022-12-08T01:24:17.623Z,8.05
2022-12-08T01:26:44.737Z,9.95
2022-12-08T01:29:11.892Z,10.45
2022-12-08T01:31:39.031Z,8.23
2022-12-08T01:34:06.371Z,6.95
2022-12-08T01:36:34.249Z,10.20
2022-12-08T01:39:01.983Z,7.47
2022-12-08T01:41:31.760Z,8.60
2022-12-08T01:44:02.572Z,8.60
2022-12-08T01:46:31.146Z,11.60
2022-12-08T01:49:33.819Z,9.10
2022-12-08T01:52:05.461Z,9.13
2022-12-08T01:54:35.346Z,10.90
2022-12-08T01:57:16.826Z,8.77
2022-12-08T01:59:51.077Z,8.27
2022-12-08T02:02:18.038Z,9.88
2022-12-08T02:04:44.815Z,8.13
2022-12-08T02:07:12.744Z,8.65
2022-12-08T02:09:40.336Z,8.90
2022-12-08T02:12:07.449Z,7.95
2022-12-08T02:14:34.631Z,9.95
2022-12-08T02:17:26.502Z,8.88
2022-12-08T02:20:37.926Z,8.20
2022-12-08T02:23:24.686Z,9.13
2022-12-08T02:26:09.729Z,7.28
2022-12-08T02:28:59.069Z,9.43
2022-12-08T02:31:36.978Z,8.00
2022-12-08T02:34:16.159Z,8.18
2022-12-08T02:36:49.086Z,8.07
2022-12-08T02:39:23.982Z,9.10
2022-12-08T02:42:02.787Z,10.35
2022-12-08T02:44:37.244Z,9.40
2022-12-08T02:47:09.237Z,8.13
2022-12-08T02:49:36.208Z,10.18
2022-12-08T02:52:29.541Z,8.00
2022-12-08T02:54:57.312Z,8.93
2022-12-08T02:57:39.277Z,9.52
2022-12-08T03:00:11.550Z,9.52
2022-12-08T03:03:05.177Z,7.80
2022-12-08T03:05:51.181Z,7.63
2022-12-08T03:08:28.078Z,8.95
2022-12-08T03:11:05.275Z,7.13
2022-12-08T03:13:40.725Z,7.95
2022-12-08T03:16:09.384Z,7.18
2022-12-08T03:18:40.234Z,6.88
2022-12-08T03:21:07.385Z,6.82
2022-12-08T03:23:36.601Z,6.22
2022-12-08T03:26:08.986Z,4.57
2022-12-08T03:28:35.814Z,8.43
2022-12-08T03:31:03.847Z,8.35
2022-12-08T03:33:37.329Z,9.23
2022-12-08T03:36:05.872Z,5.95
2022-12-08T03:38:46.511Z,7.07
2022-12-08T03:41:19.046Z,8.27
2022-12-08T03:43:47.687Z,8.88
2022-12-08T03:46:16.178Z,8.57
2022-12-08T03:48:43.165Z,11.25
2022-12-08T03:51:10.045Z,11.15
2022-12-08T03:53:36.972Z,10.48
2022-12-08T03:56:05.977Z,10.32
2022-12-08T03:58:37.177Z,10.25
2022-12-08T04:01:04.322Z,10.15
2022-12-08T04:03:31.145Z,12.23
2022-12-08T04:05:57.853Z,12.38
2022-12-08T04:08:24.664Z,14.02
2022-12-08T04:10:51.404Z,11.10
2022-12-08T04:13:18.178Z,10.88
2022-12-08T04:15:46.579Z,9.48
2022-12-08T04:18:13.794Z,14.15
2022-12-08T04:20:41.620Z,11.82
2022-12-08T04:23:10.317Z,12.73
2022-12-08T04:25:38.707Z,13.57
2022-12-08T04:28:05.916Z,13.30
2022-12-08T04:30:33.177Z,12.73
2022-12-08T04:32:59.977Z,15.85
2022-12-08T04:35:26.839Z,15.85
2022-12-08T04:37:53.533Z,15.05
2022-12-08T04:40:20.242Z,16.08
2022-12-08T04:42:46.953Z,16.98
2022-12-08T04:45:13.622Z,19.88
2022-12-08T04:47:40.466Z,14.75
2022-12-08T04:50:08.430Z,18.95
2022-12-08T04:52:35.172Z,14.57
2022-12-08T04:55:02.252Z,17.20
2022-12-08T04:57:28.964Z,18.10
2022-12-08T04:59:55.789Z,15.02
2022-12-08T05:02:22.541Z,18.90
2022-12-08T05:04:49.364Z,16.85
2022-12-08T05:07:16.119Z,16.38
2022-12-08T05:09:42.869Z,16.88
2022-12-08T05:12:09.558Z,15.65
2022-12-08T05:14:36.244Z,16.45
2022-12-08T05:17:09.168Z,17.23
2022-12-08T05:19:36.385Z,21.17
2022-12-08T05:22:03.127Z,19.63
2022-12-08T05:24:29.867Z,18.08
2022-12-08T05:26:56.599Z,16.27
2022-12-08T05:29:23.416Z,16.80
2022-12-08T05:31:50.835Z,21.00
2022-12-08T05:34:18.385Z,19.20
2022-12-08T05:36:45.120Z,16.50
2022-12-08T05:39:13.547Z,19.98
2022-12-08T05:41:40.425Z,18.85
2022-12-08T05:44:07.670Z,15.82
2022-12-08T05:46:34.481Z,19.75
2022-12-08T05:49:01.931Z,18.67
2022-12-08T05:51:29.111Z,16.90
2022-12-08T05:53:56.132Z,15.23
2022-12-08T05:56:23.481Z,17.77
2022-12-08T05:58:50.258Z,18.55
2022-12-08T06:01:23.794Z,17.42
2022-12-08T06:03:50.891Z,17.10
2022-12-08T06:06:17.764Z,16.08
2022-12-08T06:08:44.688Z,18.92
2022-12-08T06:11:21.210Z,20.40
2022-12-08T06:13:49.119Z,23.08
2022-12-08T06:16:16.566Z,17.75
2022-12-08T06:18:43.835Z,17.75
2022-12-08T06:21:12.042Z,18.65
2022-12-08T06:23:39.158Z,24.35
2022-12-08T06:26:08.705Z,15.23
2022-12-08T06:28:36.457Z,19.40
2022-12-08T06:31:21.323Z,18.00
2022-12-08T06:33:48.474Z,15.63
2022-12-08T06:36:18.775Z,19.13
2022-12-08T06:38:47.226Z,23.48
2022-12-08T06:41:14.662Z,17.85
2022-12-08T06:43:41.915Z,17.73
2022-12-08T06:46:10.930Z,20.95
2022-12-08T06:48:37.761Z,17.00
2022-12-08T06:51:13.604Z,19.50
2022-12-08T06:53:40.655Z,17.75
2022-12-08T06:56:07.889Z,20.10
2022-12-08T06:58:34.799Z,20.75
2022-12-08T07:01:09.593Z,16.33
2022-12-08T07:03:37.729Z,18.52
2022-12-08T07:06:05.138Z,16.60
2022-12-08T07:08:33.220Z,20.85
2022-12-08T07:11:00.103Z,20.58
2022-12-08T07:13:26.951Z,19.52
2022-12-08T07:15:53.818Z,18.85
2022-12-08T07:18:20.856Z,18.30
2022-12-08T07:20:47.853Z,17.33
2022-12-08T07:23:14.837Z,17.50
2022-12-08T07:25:41.867Z,19.27
2022-12-08T07:28:10.870Z,17.60
2022-12-08T07:30:38.495Z,19.25
2022-12-08T07:33:08.341Z,18.05
2022-12-08T07:35:35.590Z,21.92
2022-12-08T07:38:02.556Z,22.90
2022-12-08T07:40:29.367Z,19.63
2022-12-08T07:42:57.174Z,18.83
2022-12-08T07:45:29.867Z,18.33
2022-12-08T07:47:58.555Z,20.40
2022-12-08T07:50:25.404Z,23.83
2022-12-08T07:52:52.200Z,19.65
2022-12-08T07:55:19.144Z,21.20
2022-12-08T07:57:46.047Z,22.95
2022-12-08T08:00:13.551Z,23.02
2022-12-08T08:02:40.875Z,20.05
2022-12-08T08:05:08.491Z,20.05
2022-12-08T08:07:36.947Z,20.55
2022-12-08T08:10:04.879Z,18.38
2022-12-08T08:12:33.376Z,20.08
2022-12-08T08:15:01.341Z,22.38
2022-12-08T08:17:29.438Z,18.80
2022-12-08T08:19:56.774Z,18.00
2022-12-08T08:22:25.122Z,18.13
2022-12-08T08:24:52.646Z,17.58
2022-12-08T08:27:20.596Z,18.48
2022-12-08T08:29:47.804Z,19.42
2022-12-08T08:32:14.996Z,22.73
2022-12-08T08:34:42.105Z,18.70
2022-12-08T08:37:09.520Z,21.30
2022-12-08T08:39:36.560Z,19.23
2022-12-08T08:42:03.469Z,20.58
2022-12-08T08:44:31.549Z,20.33
2022-12-08T08:46:58.651Z,19.33
2022-12-08T08:49:25.645Z,25.45
2022-12-08T08:51:52.896Z,17.80
2022-12-08T08:54:20.096Z,23.80
2022-12-08T08:56:48.521Z,18.90
2022-12-08T08:59:15.639Z,17.60
2022-12-08T09:01:43.683Z,21.98
2022-12-08T09:04:10.698Z,18.40
2022-12-08T09:06:38.312Z,18.63
2022-12-08T09:09:05.344Z,20.30
2022-12-08T09:11:33.104Z,19.65
2022-12-08T09:13:59.932Z,16.95
2022-12-08T09:16:27.247Z,19.15
2022-12-08T09:18:54.329Z,19.15
2022-12-08T09:21:24.321Z,23.65
2022-12-08T09:23:53.437Z,24.45
2022-12-08T09:26:22.604Z,19.27
2022-12-08T09:28:50.788Z,21.45
2022-12-08T09:31:18.987Z,18.52
2022-12-08T09:33:47.659Z,25.10
2022-12-08T09:36:14.517Z,19.10
2022-12-08T09:38:41.512Z,21.00
2022-12-08T09:41:18.241Z,17.63
2022-12-08T09:44:15.070Z,19.77
2022-12-08T09:46:43.682Z,20.33
2022-12-08T09:49:16.729Z,21.73
2022-12-08T09:51:44.639Z,20.90
2022-12-08T09:54:32.864Z,18.20
2022-12-08T09:57:02.956Z,16.50
2022-12-08T09:59:32.268Z,18.10
2022-12-08T10:02:01.519Z,19.23
2022-12-08T10:04:37.062Z,17.90
2022-12-08T10:07:18.189Z,17.95
2022-12-08T10:10:28.567Z,16.80
2022-12-08T10:12:59.718Z,17.27
2022-12-08T10:15:40.607Z,20.73
2022-12-08T10:18:19.944Z,16.98
2022-12-08T10:20:48.882Z,16.85
2022-12-08T10:23:23.281Z,18.50
2022-12-08T10:25:53.898Z,15.63
2022-12-08T10:28:20.967Z,19.42
2022-12-08T10:30:47.732Z,14.55
2022-12-08T10:33:17.059Z,16.48
2022-12-08T10:35:46.882Z,15.38
2022-12-08T10:38:22.939Z,15.40
2022-12-08T10:40:57.497Z,14.38
2022-12-08T10:43:27.956Z,16.67
2022-12-08T10:45:54.904Z,13.68
2022-12-08T10:48:25.823Z,16.95
2022-12-08T10:50:52.628Z,13.32
2022-12-08T10:53:29.408Z,15.27
2022-12-08T10:56:02.637Z,13.48
2022-12-08T10:58:40.754Z,13.25
2022-12-08T11:01:15.877Z,16.77
2022-12-08T11:04:18.091Z,13.85
2022-12-08T11:06:45.668Z,14.48
2022-12-08T11:09:15.464Z,16.02
2022-12-08T11:11:51.617Z,14.50
2022-12-08T11:14:43.815Z,16.38
2022-12-08T11:17:15.698Z,17.45
2022-12-08T11:19:46.381Z,13.20
2022-12-08T11:22:28.034Z,18.70
2022-12-08T11:25:07.965Z,21.55
2022-12-08T11:27:36.922Z,19.75
2022-12-08T11:30:14.707Z,22.38
2022-12-08T11:32:44.875Z,23.08
2022-12-08T11:35:21.538Z,20.90
2022-12-08T11:37:49.042Z,16.90
2022-12-08T11:40:22.307Z,20.50
2022-12-08T11:42:59.506Z,24.00
2022-12-08T11:45:30.703Z,22.40
2022-12-08T11:48:20.090Z,18.85
2022-12-08T11:50:53.853Z,17.77
2022-12-08T11:53:26.996Z,17.73
2022-12-08T11:56:09.634Z,19.52
2022-12-08T11:58:41.513Z,15.65
2022-12-08T12:01:17.443Z,18.30
2022-12-08T12:03:49.221Z,19.38
2022-12-08T12:06:46.259Z,17.00
2022-12-08T12:09:20.220Z,17.40
2022-12-08T12:12:13.220Z,17.42
2022-12-08T12:15:00.796Z,17.35
2022-12-08T12:17:30.781Z,18.10
2022-12-08T12:20:04.395Z,13.93
2022-12-08T12:22:34.827Z,16.80
2022-12-08T12:25:03.683Z,18.38
2022-12-08T12:27:38.598Z,17.25
2022-12-08T12:30:09.142Z,16.40
2022-12-08T12:32:51.305Z,18.52
2022-12-08T12:35:30.971Z,20.60
2022-12-08T12:38:26.941Z,16.95
2022-12-08T12:41:01.023Z,17.63
2022-12-08T12:43:36.305Z,17.20
2022-12-08T12:46:25.636Z,16.75
2022-12-08T12:48:52.683Z,16.88
2022-12-08T12:51:44.617Z,19.15
2022-12-08T12:54:25.673Z,19.75
2022-12-08T12:57:16.015Z,19.95
2022-12-08T12:59:47.837Z,18.05
2022-12-08T13:02:26.676Z,19.27
2022-12-08T13:05:09.708Z,14.82
2022-12-08T13:07:44.004Z,17.00
2022-12-08T13:10:19.985Z,18.35
2022-12-08T13:13:02.480Z,18.63
2022-12-08T13:15:35.302Z,18.20
2022-12-08T13:18:02.176Z,18.90
2022-12-08T13:20:28.910Z,19.95
2022-12-08T13:23:29.038Z,18.00
2022-12-08T13:26:15.891Z,16.73
2022-12-08T13:29:25.039Z,16.60
2022-12-08T13:31:56.268Z,20.10
2022-12-08T13:34:45.624Z,21.25
2022-12-08T13:37:12.467Z,19.67
2022-12-08T13:39:39.033Z,18.02
2022-12-08T13:42:11.801Z,21.27
2022-12-08T13:45:20.157Z,19.50
2022-12-08T13:48:20.397Z,21.80
2022-12-08T13:52:33.071Z,16.05
2022-12-08T13:59:19.643Z,19.55
2022-12-08T14:01:49.135Z,18.00
2022-12-08T14:04:42.617Z,20.35
2022-12-08T14:07:09.558Z,20.27
2022-12-08T14:09:37.265Z,13.75
2022-12-08T14:12:16.325Z,14.88
2022-12-08T14:15:02.385Z,11.30
2022-12-08T14:17:33.579Z,13.75
2022-12-08T14:20:07.812Z,12.30
2022-12-08T14:22:36.624Z,16.48
2022-12-08T14:25:04.622Z,14.40
2022-12-08T14:27:36.601Z,13.20
2022-12-08T14:30:13.656Z,12.60
2022-12-08T14:32:47.569Z,13.73
2022-12-08T14:35:23.360Z,13.05
2022-12-08T14:37:51.795Z,12.55
2022-12-08T14:40:22.767Z,13.82
2022-12-08T14:43:14.531Z,11.63
2022-12-08T14:45:41.363Z,11.32
2022-12-08T14:48:30.750Z,11.48
2022-12-08T14:51:03.336Z,12.52
2022-12-08T14:53:38.623Z,9.63
2022-12-08T14:56:24.859Z,15.55
2022-12-08T14:59:11.528Z,13.93
2022-12-08T15:01:38.621Z,14.10
2022-12-08T15:04:14.941Z,14.77
2022-12-08T15:07:17.851Z,12.98
2022-12-08T15:09:46.643Z,11.15
2022-12-08T15:12:13.220Z,12.63
2022-12-08T15:14:54.514Z,12.45
2022-12-08T15:17:41.949Z,12.70
2022-12-08T15:20:50.899Z,10.93
2022-12-08T15:23:25.340Z,14.25
2022-12-08T15:25:52.209Z,11.57
2022-12-08T15:28:25.237Z,13.88
2022-12-08T15:30:55.469Z,13.23
2022-12-08T15:33:22.314Z,13.52
2022-12-08T15:35:49.869Z,14.90
2022-12-08T15:38:26.483Z,18.02
2022-12-08T15:40:54.634Z,18.15
2022-12-08T15:43:22.168Z,18.13
2022-12-08T15:45:58.367Z,16.50
2022-12-08T15:48:28.328Z,15.95
2022-12-08T15:50:55.368Z,14.48
2022-12-08T15:53:22.233Z,12.32
2022-12-08T15:56:25.232Z,10.77
2022-12-08T15:58:54.212Z,14.05
2022-12-08T16:01:22.485Z,12.25
2022-12-08T16:09:29.766Z,9.80
2022-12-08T16:12:15.265Z,9.98
2022-12-08T16:17:31.474Z,12.75
2022-12-08T16:19:58.303Z,11.13
2022-12-08T16:25:20.565Z,10.98
2022-12-08T16:28:17.334Z,10.88
2022-12-08T16:30:37.257Z,11.30
2022-12-08T16:33:04.386Z,11.23
2022-12-08T16:35:31.234Z,10.15
2022-12-08T16:37:58.223Z,15.90
2022-12-08T16:40:25.124Z,8.93
2022-12-08T16:42:51.855Z,11.80
2022-12-08T16:45:25.497Z,35.63
2022-12-08T16:47:59.181Z,20.42
2022-12-08T16:50:27.431Z,76.93
2022-12-08T16:53:05.258Z,76.53
2022-12-08T16:55:32.656Z,40.15
2022-12-08T16:57:59.747Z,31.10
2022-12-08T17:00:28.202Z,61.83
2022-12-08T17:02:55.163Z,54.13
2022-12-08T17:05:24.339Z,25.42
2022-12-08T17:07:52.752Z,15.32
2022-12-08T17:10:23.119Z,16.25
2022-12-08T17:12:50.454Z,53.83
2022-12-08T17:15:20.954Z,54.72
2022-12-08T17:17:47.646Z,49.75
2022-12-08T17:20:20.715Z,25.92
2022-12-08T17:22:47.831Z,18.70
2022-12-08T17:25:15.074Z,19.20
2022-12-08T17:27:41.952Z,22.58
2022-12-08T17:30:11.864Z,23.85
2022-12-08T17:32:39.130Z,19.17
2022-12-08T17:35:07.035Z,15.32
2022-12-08T17:37:34.147Z,15.05
2022-12-08T17:40:01.005Z,15.20
2022-12-08T17:42:27.804Z,14.25
2022-12-08T17:44:54.956Z,13.20
2022-12-08T17:47:22.416Z,12.57
2022-12-08T17:49:49.119Z,12.68
2022-12-08T17:52:15.942Z,12.88
2022-12-08T17:54:42.624Z,12.45
2022-12-08T17:57:09.405Z,13.10
2022-12-08T17:59:36.079Z,14.65
2022-12-08T18:02:04.545Z,14.85
2022-12-08T18:04:31.648Z,12.88
2022-12-08T18:07:00.370Z,14.70
2022-12-08T18:09:27.162Z,12.82
2022-12-08T18:11:53.956Z,14.25
2022-12-08T18:14:20.830Z,13.05
2022-12-08T18:16:47.917Z,12.70
2022-12-08T18:19:15.572Z,13.57
2022-12-08T18:21:42.864Z,13.25
2022-12-08T18:24:17.102Z,14.13
2022-12-08T18:26:43.847Z,10.82
2022-12-08T18:29:10.506Z,13.95
2022-12-08T18:31:37.192Z,16.42
2022-12-08T18:34:04.097Z,13.52
2022-12-08T18:36:31.027Z,14.30
2022-12-08T18:38:57.909Z,17.20
2022-12-08T18:41:26.247Z,14.00
2022-12-08T18:43:55.358Z,14.23
2022-12-08T18:46:22.218Z,14.77
2022-12-08T18:48:50.673Z,14.20
2022-12-08T18:51:20.473Z,14.25
2022-12-08T18:53:48.034Z,15.55
2022-12-08T18:56:26.302Z,15.80
2022-12-08T18:58:58.479Z,16.77
2022-12-08T19:01:28.599Z,14.23
2022-12-08T19:04:26.609Z,14.57
2022-12-08T19:06:45.080Z,14.15
2022-12-08T19:09:16.010Z,16.50
2022-12-08T19:11:43.383Z,15.00
2022-12-08T19:14:10.690Z,19.55
2022-12-08T19:16:37.606Z,34.70
2022-12-08T19:19:04.439Z,68.97
2022-12-08T19:21:31.810Z,69.78
2022-12-08T19:23:58.786Z,64.63
2022-12-08T19:26:27.413Z,51.47
2022-12-08T19:28:54.242Z,33.70
2022-12-08T19:31:21.304Z,27.63
2022-12-08T19:33:48.062Z,21.25
2022-12-08T19:36:20.333Z,19.73
2022-12-08T19:39:05.645Z,18.33
2022-12-08T19:41:58.953Z,18.80
2022-12-08T19:44:46.240Z,17.17
2022-12-08T19:47:13.935Z,20.15
2022-12-08T19:49:41.148Z,19.73
2022-12-08T19:52:08.012Z,16.05
2022-12-08T19:54:34.985Z,15.85
2022-12-08T19:57:02.083Z,16.80
2022-12-08T19:59:30.406Z,15.68
2022-12-08T20:01:58.394Z,15.18
2022-12-08T20:04:26.240Z,16.02
2022-12-08T20:06:54.152Z,17.45
2022-12-08T20:09:21.609Z,16.33
2022-12-08T20:11:48.534Z,15.68
2022-12-08T20:14:15.197Z,17.58
2022-12-08T20:16:42.075Z,17.70
2022-12-08T20:19:09.458Z,19.27
2022-12-08T20:21:36.231Z,17.00
2022-12-08T20:24:04.751Z,18.63
2022-12-08T20:26:31.883Z,19.50
2022-12-08T20:28:58.609Z,20.15
2022-12-08T20:31:29.654Z,20.40
2022-12-08T20:33:56.482Z,16.45
2022-12-08T20:36:23.494Z,17.23
2022-12-08T20:38:51.600Z,17.33
2022-12-08T20:41:19.149Z,14.98
2022-12-08T20:43:47.555Z,18.42
2022-12-08T20:46:15.910Z,16.35
2022-12-08T20:48:43.849Z,14.55
2022-12-08T20:51:15.871Z,14.90
2022-12-08T20:53:43.070Z,17.10
2022-12-08T20:56:17.934Z,17.42
2022-12-08T20:58:45.545Z,16.20
2022-12-08T21:01:13.921Z,18.17
2022-12-08T21:03:41.632Z,17.17
2022-12-08T21:06:08.610Z,17.13
2022-12-08T21:08:35.647Z,18.17
2022-12-08T21:11:03.497Z,17.30
2022-12-08T21:13:30.489Z,19.67
2022-12-08T21:15:57.606Z,17.30
2022-12-08T21:18:25.194Z,17.23
2022-12-08T21:20:52.645Z,19.67
2022-12-08T21:23:19.833Z,18.80
2022-12-08T21:25:47.624Z,17.23
2022-12-08T21:28:14.528Z,19.80
2022-12-08T21:30:43.136Z,19.52
2022-12-08T21:33:28.756Z,20.63
2022-12-08T21:36:07.937Z,19.63
2022-12-08T21:38:38.856Z,19.75
2022-12-08T21:41:08.548Z,20.92
2022-12-08T21:43:35.504Z,19.60
2022-12-08T21:46:02.713Z,19.67
2022-12-08T21:48:29.611Z,20.02
2022-12-08T21:50:56.808Z,22.17
2022-12-08T21:53:26.504Z,18.88
2022-12-08T21:55:53.394Z,19.63
2022-12-08T21:58:20.097Z,20.38
2022-12-08T22:00:47.049Z,18.30
2022-12-08T22:03:14.832Z,19.40
2022-12-08T22:05:42.495Z,19.00
2022-12-08T22:08:09.660Z,20.58
2022-12-08T22:10:36.597Z,17.92
2022-12-08T22:13:03.665Z,18.92
2022-12-08T22:15:30.766Z,18.88
2022-12-08T22:17:57.758Z,20.17
2022-12-08T22:20:25.050Z,19.85
2022-12-08T22:22:51.962Z,18.75
2022-12-08T22:25:19.166Z,15.90
2022-12-08T22:27:46.066Z,22.83
2022-12-08T22:30:13.444Z,17.60
2022-12-08T22:32:40.758Z,18.23
2022-12-08T22:35:08.001Z,19.40
2022-12-08T22:37:35.076Z,18.83
2022-12-08T22:40:02.027Z,18.05
2022-12-08T22:42:28.972Z,18.23
2022-12-08T22:44:55.769Z,17.80
2022-12-08T22:47:22.583Z,18.48
2022-12-08T22:49:49.322Z,20.73
2022-12-08T22:52:16.254Z,19.42
2022-12-08T22:54:43.175Z,17.92
2022-12-08T22:57:10.294Z,18.80
2022-12-08T22:59:37.735Z,18.48
2022-12-08T23:02:04.578Z,20.38
2022-12-08T23:04:31.358Z,18.45
2022-12-08T23:06:58.144Z,18.77
2022-12-08T23:09:24.911Z,20.83
2022-12-08T23:11:52.092Z,17.48
2022-12-08T23:14:18.775Z,17.10
2022-12-08T23:16:45.580Z,18.40
2022-12-08T23:19:12.441Z,18.73
2022-12-08T23:21:39.461Z,17.92
2022-12-08T23:24:06.204Z,17.77
2022-12-08T23:26:35.416Z,16.98
2022-12-08T23:29:02.456Z,18.52
2022-12-08T23:31:29.131Z,21.30
2022-12-08T23:33:56.103Z,17.48
2022-12-08T23:36:26.317Z,19.23
2022-12-08T23:38:54.209Z,19.08
2022-12-08T23:41:21.125Z,19.02
2022-12-08T23:43:49.866Z,18.65
2022-12-08T23:46:18.400Z,19.27
2022-12-08T23:48:45.716Z,19.50
2022-12-08T23:51:13.113Z,18.27
2022-12-08T23:53:40.167Z,19.42
2022-12-08T23:56:10.599Z,18.23
2022-12-08T23:58:37.736Z,18.33
